createdAt,value
2022-08-26T00:02:08.030Z,87.37
2022-08-26T00:04:36.886Z,87.63
2022-08-26T00:07:06.278Z,87.87
2022-08-26T00:09:39.051Z,87.86
2022-08-26T00:12:12.398Z,87.86
2022-08-26T00:14:41.453Z,87.56
2022-08-26T00:17:10.587Z,88.13
2022-08-26T00:19:50.854Z,88.62
2022-08-26T00:22:21.765Z,88.41
2022-08-26T00:24:50.509Z,87.76
2022-08-26T00:27:19.474Z,88.05
2022-08-26T00:29:49.524Z,87.83
2022-08-26T00:32:19.345Z,87.97
2022-08-26T00:34:48.316Z,88.69
2022-08-26T00:37:17.284Z,88.50
2022-08-26T00:39:46.203Z,88.64
2022-08-26T00:42:15.003Z,88.69
2022-08-26T00:44:44.586Z,88.92
2022-08-26T00:47:31.041Z,88.95
2022-08-26T00:50:03.644Z,88.74
2022-08-26T00:52:32.757Z,88.73
2022-08-26T00:55:14.645Z,89.18
2022-08-26T00:57:51.294Z,88.91
2022-08-26T01:00:25.847Z,88.90
2022-08-26T01:02:56.807Z,88.64
2022-08-26T01:05:26.496Z,88.69
2022-08-26T01:07:55.085Z,88.75
2022-08-26T01:10:27.803Z,88.76
2022-08-26T01:13:03.784Z,88.56
2022-08-26T01:15:36.547Z,88.79
2022-08-26T01:18:06.329Z,88.43
2022-08-26T01:20:58.828Z,88.29
2022-08-26T01:23:39.102Z,88.32
2022-08-26T01:26:19.447Z,88.06
2022-08-26T01:28:51.955Z,88.10
2022-08-26T01:31:29.221Z,87.80
2022-08-26T01:34:07.225Z,88.16
2022-08-26T01:36:39.659Z,87.96
2022-08-26T01:39:09.242Z,87.38
2022-08-26T01:41:42.948Z,87.65
2022-08-26T01:44:19.698Z,86.93
2022-08-26T01:46:52.015Z,86.19
2022-08-26T01:49:22.642Z,83.33
2022-08-26T01:51:58.295Z,81.20
2022-08-26T01:54:27.365Z,79.85
2022-08-26T01:56:56.476Z,78.64
2022-08-26T01:59:26.680Z,76.77
2022-08-26T02:01:55.257Z,75.39
2022-08-26T02:04:34.566Z,73.75
2022-08-26T02:07:08.952Z,72.77
2022-08-26T02:09:41.842Z,72.00
2022-08-26T02:12:12.925Z,71.37
2022-08-26T02:14:51.282Z,70.49
2022-08-26T02:17:26.756Z,70.45
2022-08-26T02:19:57.339Z,69.90
2022-08-26T02:22:28.651Z,69.97
2022-08-26T02:25:00.276Z,70.36
2022-08-26T02:27:33.363Z,68.95
2022-08-26T02:30:10.399Z,69.64
2022-08-26T02:32:41.582Z,68.93
2022-08-26T02:35:13.400Z,69.18
2022-08-26T02:37:46.685Z,69.26
2022-08-26T02:40:25.796Z,69.96
2022-08-26T02:42:56.926Z,69.50
2022-08-26T02:45:28.291Z,69.88
2022-08-26T02:47:59.608Z,69.88
2022-08-26T02:50:28.430Z,69.31
2022-08-26T02:52:57.745Z,69.53
2022-08-26T02:55:28.041Z,69.99
2022-08-26T02:57:57.889Z,70.16
2022-08-26T03:00:28.174Z,69.94
2022-08-26T03:02:57.271Z,70.18
2022-08-26T03:05:26.203Z,70.59
2022-08-26T03:07:54.983Z,69.68
2022-08-26T03:10:23.708Z,69.39
2022-08-26T03:12:54.705Z,68.90
2022-08-26T03:15:23.162Z,69.09
2022-08-26T03:17:51.707Z,68.84
2022-08-26T03:20:20.567Z,68.46
2022-08-26T03:22:52.112Z,68.51
2022-08-26T03:25:22.855Z,67.90
2022-08-26T03:27:53.740Z,67.83
2022-08-26T03:30:44.931Z,66.67
2022-08-26T03:33:15.929Z,67.48
2022-08-26T03:35:45.895Z,67.18
2022-08-26T03:38:15.555Z,66.77
2022-08-26T03:40:44.629Z,65.90
2022-08-26T03:43:15.012Z,65.08
2022-08-26T03:45:44.275Z,65.69
2022-08-26T03:48:14.444Z,64.99
2022-08-26T03:50:43.544Z,64.94
2022-08-26T03:53:13.470Z,64.07
2022-08-26T03:55:43.204Z,63.95
2022-08-26T03:58:12.343Z,62.85
2022-08-26T04:00:40.732Z,62.53
2022-08-26T04:03:10.413Z,62.75
2022-08-26T04:05:39.165Z,63.62
2022-08-26T04:08:08.468Z,62.47
2022-08-26T04:10:39.166Z,62.08
2022-08-26T04:13:08.016Z,60.17
2022-08-26T04:15:36.667Z,61.13
2022-08-26T04:18:05.441Z,60.94
2022-08-26T04:20:34.293Z,60.47
2022-08-26T04:23:03.028Z,58.44
2022-08-26T04:25:34.714Z,58.72
2022-08-26T04:28:04.663Z,59.27
2022-08-26T04:30:33.346Z,57.27
2022-08-26T04:33:12.921Z,57.67
2022-08-26T04:35:43.166Z,58.99
2022-08-26T04:38:14.273Z,55.99
2022-08-26T04:40:47.398Z,56.94
2022-08-26T04:43:16.202Z,53.87
2022-08-26T04:45:44.895Z,54.31
2022-08-26T04:48:16.938Z,51.13
2022-08-26T04:50:49.636Z,52.35
2022-08-26T04:53:18.390Z,51.47
2022-08-26T04:55:48.467Z,52.01
2022-08-26T04:58:19.288Z,51.80
2022-08-26T05:00:49.963Z,51.86
2022-08-26T05:03:20.133Z,51.22
2022-08-26T05:05:52.963Z,50.96
2022-08-26T05:08:23.525Z,50.67
2022-08-26T05:10:57.762Z,51.98
2022-08-26T05:13:28.749Z,52.35
2022-08-26T05:15:59.146Z,52.78
2022-08-26T05:18:31.045Z,51.99
2022-08-26T05:20:59.723Z,52.22
2022-08-26T05:23:29.589Z,51.57
2022-08-26T05:26:00.366Z,51.24
2022-08-26T05:28:30.807Z,49.39
2022-08-26T05:30:59.452Z,46.66
2022-08-26T05:33:28.503Z,47.34
2022-08-26T05:35:57.134Z,46.01
2022-08-26T05:38:25.724Z,46.20
2022-08-26T05:40:59.677Z,46.00
2022-08-26T05:43:28.393Z,44.87
2022-08-26T05:45:58.237Z,46.93
2022-08-26T05:48:27.556Z,45.67
2022-08-26T05:50:56.899Z,45.04
2022-08-26T05:53:26.307Z,45.60
2022-08-26T05:55:58.153Z,43.96
2022-08-26T05:58:28.356Z,44.37
2022-08-26T06:01:11.163Z,41.86
2022-08-26T06:03:43.125Z,42.52
2022-08-26T06:06:15.000Z,44.48
2022-08-26T06:08:49.043Z,42.62
2022-08-26T06:11:20.845Z,42.75
2022-08-26T06:13:49.329Z,42.45
2022-08-26T06:16:20.223Z,42.15
2022-08-26T06:18:51.547Z,42.74
2022-08-26T06:21:28.724Z,41.84
2022-08-26T06:24:21.873Z,43.19
2022-08-26T06:26:58.544Z,41.80
2022-08-26T06:29:28.053Z,41.03
2022-08-26T06:31:58.642Z,42.51
2022-08-26T06:34:32.032Z,42.07
2022-08-26T06:37:06.762Z,43.65
2022-08-26T06:39:35.745Z,41.12
2022-08-26T06:42:09.290Z,42.05
2022-08-26T06:44:40.994Z,41.28
2022-08-26T06:47:09.747Z,39.13
2022-08-26T06:49:38.404Z,41.86
2022-08-26T06:52:08.327Z,41.57
2022-08-26T06:54:38.758Z,40.53
2022-08-26T06:57:08.044Z,38.88
2022-08-26T06:59:36.994Z,39.26
2022-08-26T07:02:06.757Z,39.66
2022-08-26T07:04:37.131Z,38.82
2022-08-26T07:07:06.017Z,38.48
2022-08-26T07:09:38.253Z,38.62
2022-08-26T07:12:07.442Z,39.33
2022-08-26T07:14:36.434Z,39.01
2022-08-26T07:17:07.358Z,38.91
2022-08-26T07:19:38.697Z,39.49
2022-08-26T07:22:08.720Z,39.18
2022-08-26T07:24:42.664Z,39.42
2022-08-26T07:27:15.741Z,39.03
2022-08-26T07:29:45.450Z,38.04
2022-08-26T07:32:15.985Z,37.61
2022-08-26T07:34:44.698Z,37.09
2022-08-26T07:37:13.272Z,36.50
2022-08-26T07:39:43.146Z,35.97
2022-08-26T07:42:14.834Z,37.04
2022-08-26T07:44:46.177Z,37.24
2022-08-26T07:47:24.660Z,36.92
2022-08-26T07:49:58.433Z,37.43
2022-08-26T07:52:30.217Z,37.00
2022-08-26T07:55:01.302Z,37.96
2022-08-26T07:57:31.267Z,36.10
2022-08-26T08:00:00.350Z,36.61
2022-08-26T08:02:30.198Z,37.92
2022-08-26T08:04:59.312Z,36.39
2022-08-26T08:07:38.785Z,36.30
2022-08-26T08:10:20.846Z,37.06
2022-08-26T08:12:51.156Z,36.59
2022-08-26T08:15:24.889Z,36.41
2022-08-26T08:17:54.762Z,34.78
2022-08-26T08:20:27.194Z,35.46
2022-08-26T08:22:56.840Z,36.10
2022-08-26T08:25:26.354Z,35.10
2022-08-26T08:27:54.814Z,34.25
2022-08-26T08:30:23.744Z,34.55
2022-08-26T08:32:53.398Z,34.90
2022-08-26T08:35:24.366Z,35.49
2022-08-26T08:37:55.573Z,35.62
2022-08-26T08:40:29.358Z,35.08
2022-08-26T08:43:14.512Z,35.10
2022-08-26T08:46:01.194Z,36.11
2022-08-26T08:48:36.404Z,34.56
2022-08-26T08:51:07.400Z,35.74
2022-08-26T08:53:43.195Z,34.85
2022-08-26T08:56:40.824Z,35.13
2022-08-26T08:59:26.591Z,33.41
2022-08-26T09:02:41.012Z,34.50
2022-08-26T09:05:26.085Z,33.54
2022-08-26T09:08:06.500Z,35.40
2022-08-26T09:10:40.951Z,35.95
2022-08-26T09:13:17.025Z,36.29
2022-08-26T09:16:19.024Z,35.28
2022-08-26T09:18:49.003Z,37.50
2022-08-26T09:21:20.049Z,36.70
2022-08-26T09:23:49.748Z,36.50
2022-08-26T09:26:25.972Z,36.25
2022-08-26T09:29:12.164Z,35.54
2022-08-26T09:31:43.533Z,37.08
2022-08-26T09:34:27.442Z,35.66
2022-08-26T09:36:58.944Z,36.71
2022-08-26T09:39:38.045Z,36.81
2022-08-26T09:42:16.726Z,36.91
2022-08-26T09:44:56.303Z,37.52
2022-08-26T09:47:40.596Z,37.01
2022-08-26T09:50:28.854Z,36.80
2022-08-26T09:53:13.407Z,36.78
2022-08-26T09:55:44.684Z,36.89
2022-08-26T09:58:16.451Z,37.33
2022-08-26T10:00:57.998Z,36.86
2022-08-26T10:03:31.724Z,36.94
2022-08-26T10:06:03.684Z,38.37
2022-08-26T10:08:37.101Z,37.63
2022-08-26T10:11:27.493Z,38.32
2022-08-26T10:14:01.572Z,37.80
2022-08-26T10:16:49.643Z,37.67
2022-08-26T10:19:29.274Z,38.16
2022-08-26T10:22:21.720Z,37.20
2022-08-26T10:24:57.068Z,38.56
2022-08-26T10:27:51.235Z,38.55
2022-08-26T10:30:26.574Z,39.12
2022-08-26T10:33:04.538Z,37.12
2022-08-26T10:35:36.260Z,39.11
2022-08-26T10:38:20.730Z,38.53
2022-08-26T10:41:13.102Z,40.29
2022-08-26T10:44:08.482Z,39.10
2022-08-26T10:46:50.134Z,39.61
2022-08-26T10:49:20.384Z,39.80
2022-08-26T10:52:24.393Z,40.93
2022-08-26T10:55:06.835Z,39.45
2022-08-26T10:57:54.704Z,39.43
2022-08-26T11:00:52.709Z,38.52
2022-08-26T11:03:42.212Z,39.25
2022-08-26T11:06:19.690Z,39.25
2022-08-26T11:09:03.524Z,38.93
2022-08-26T11:11:41.537Z,39.11
2022-08-26T11:14:28.442Z,39.61
2022-08-26T11:16:59.373Z,38.94
2022-08-26T11:19:58.872Z,38.93
2022-08-26T11:22:33.491Z,39.38
2022-08-26T11:25:09.565Z,38.67
2022-08-26T11:27:40.896Z,38.81
2022-08-26T11:30:18.662Z,39.61
2022-08-26T11:32:58.821Z,39.28
2022-08-26T11:35:28.232Z,37.90
2022-08-26T11:38:04.386Z,38.20
2022-08-26T11:40:36.069Z,37.72
2022-08-26T11:43:24.804Z,37.83
2022-08-26T11:46:09.579Z,38.10
2022-08-26T11:48:44.067Z,37.84
2022-08-26T11:51:24.688Z,39.85
2022-08-26T11:54:12.816Z,39.06
2022-08-26T11:56:43.752Z,38.23
2022-08-26T11:59:16.338Z,38.40
2022-08-26T12:01:49.658Z,38.42
2022-08-26T12:04:29.300Z,38.85
2022-08-26T12:06:59.579Z,38.71
2022-08-26T12:09:37.938Z,38.43
2022-08-26T12:12:24.906Z,38.58
2022-08-26T12:15:14.443Z,39.20
2022-08-26T12:17:44.712Z,37.89
2022-08-26T12:20:46.594Z,38.95
2022-08-26T12:23:37.923Z,39.06
2022-08-26T12:26:16.379Z,39.61
2022-08-26T12:29:12.646Z,39.04
2022-08-26T12:31:50.442Z,39.53
2022-08-26T12:34:19.631Z,40.20
2022-08-26T12:36:51.636Z,39.99
2022-08-26T12:39:30.569Z,40.55
2022-08-26T12:42:01.860Z,40.27
2022-08-26T12:44:53.707Z,41.31
2022-08-26T12:47:39.015Z,41.41
2022-08-26T12:50:19.022Z,41.62
2022-08-26T12:53:03.519Z,41.00
2022-08-26T12:55:44.434Z,40.58
2022-08-26T12:58:12.982Z,40.88
2022-08-26T13:01:02.635Z,40.74
2022-08-26T13:03:43.949Z,40.65
2022-08-26T13:06:26.512Z,41.33
2022-08-26T13:09:10.344Z,42.01
2022-08-26T13:11:41.872Z,42.06
2022-08-26T13:14:12.040Z,42.67
2022-08-26T13:16:50.313Z,42.18
2022-08-26T13:19:23.555Z,42.01
2022-08-26T13:21:55.536Z,42.81
2022-08-26T13:24:28.326Z,42.72
2022-08-26T13:26:57.152Z,42.10
2022-08-26T13:29:26.215Z,42.26
2022-08-26T13:31:55.334Z,43.05
2022-08-26T13:34:24.886Z,43.43
2022-08-26T13:36:55.507Z,42.62
2022-08-26T13:39:24.462Z,43.09
2022-08-26T13:41:53.655Z,43.23
2022-08-26T13:44:22.519Z,43.92
2022-08-26T13:46:51.155Z,44.01
2022-08-26T13:49:19.976Z,44.45
2022-08-26T13:51:48.693Z,43.93
2022-08-26T13:54:17.407Z,43.99
2022-08-26T13:56:46.301Z,44.95
2022-08-26T13:59:14.893Z,45.98
2022-08-26T14:01:43.820Z,47.15
2022-08-26T14:04:12.730Z,48.11
2022-08-26T14:06:41.325Z,48.53
2022-08-26T14:09:11.501Z,48.77
2022-08-26T14:11:54.144Z,49.10
2022-08-26T14:14:23.605Z,49.08
2022-08-26T14:16:59.558Z,49.01
2022-08-26T14:19:32.184Z,49.90
2022-08-26T14:22:01.505Z,50.77
2022-08-26T14:24:31.166Z,51.48
2022-08-26T14:27:00.202Z,52.14
2022-08-26T14:29:29.377Z,52.04
2022-08-26T14:31:59.452Z,52.35
2022-08-26T14:34:28.185Z,52.35
2022-08-26T14:36:56.590Z,52.63
2022-08-26T14:39:25.110Z,53.14
2022-08-26T14:41:57.141Z,52.70
2022-08-26T14:44:28.967Z,54.23
2022-08-26T14:46:57.771Z,54.12
2022-08-26T14:49:28.060Z,54.43
2022-08-26T14:51:57.018Z,54.38
2022-08-26T14:54:25.646Z,55.13
2022-08-26T14:56:58.421Z,55.80
2022-08-26T14:59:36.455Z,55.98
2022-08-26T15:02:08.004Z,56.81
2022-08-26T15:04:36.574Z,56.22
2022-08-26T15:07:06.290Z,56.92
2022-08-26T15:09:38.140Z,57.36
2022-08-26T15:12:07.214Z,57.31
2022-08-26T15:14:35.836Z,57.47
2022-08-26T15:17:05.381Z,58.01
2022-08-26T15:19:33.984Z,58.43
2022-08-26T15:22:02.630Z,58.71
2022-08-26T15:24:31.115Z,58.62
2022-08-26T15:26:59.907Z,59.42
2022-08-26T15:29:28.449Z,59.56
2022-08-26T15:31:57.640Z,59.58
2022-08-26T15:34:27.120Z,59.91
2022-08-26T15:36:55.979Z,59.67
2022-08-26T15:39:24.984Z,59.94
2022-08-26T15:41:53.465Z,60.49
2022-08-26T15:44:21.945Z,60.60
2022-08-26T15:46:52.516Z,60.46
2022-08-26T15:49:24.348Z,60.51
2022-08-26T15:51:53.359Z,60.84
2022-08-26T15:54:23.610Z,60.75
2022-08-26T15:56:53.811Z,60.85
2022-08-26T15:59:23.262Z,60.94
2022-08-26T16:01:53.194Z,61.37
2022-08-26T16:04:22.261Z,62.07
2022-08-26T16:06:52.601Z,61.08
2022-08-26T16:09:24.478Z,61.59
2022-08-26T16:11:54.902Z,61.49
2022-08-26T16:14:24.374Z,61.17
2022-08-26T16:16:53.053Z,61.59
2022-08-26T16:19:22.154Z,60.52
2022-08-26T16:21:52.201Z,60.65
2022-08-26T16:24:28.424Z,60.69
2022-08-26T16:26:59.339Z,60.61
2022-08-26T16:29:28.320Z,60.47
2022-08-26T16:31:57.001Z,60.07
2022-08-26T16:34:25.733Z,60.26
2022-08-26T16:36:54.472Z,60.58
2022-08-26T16:39:23.201Z,59.89
2022-08-26T16:41:51.963Z,60.40
2022-08-26T16:44:20.679Z,60.18
2022-08-26T16:46:54.572Z,60.40
2022-08-26T16:49:27.601Z,60.99
2022-08-26T16:51:56.240Z,61.26
2022-08-26T16:54:24.986Z,61.07
2022-08-26T16:56:53.322Z,61.78
2022-08-26T16:59:22.581Z,61.29
2022-08-26T17:01:52.174Z,61.57
2022-08-26T17:04:20.895Z,61.90
2022-08-26T17:06:49.992Z,61.96
2022-08-26T17:09:20.859Z,62.77
2022-08-26T17:11:49.720Z,63.35
2022-08-26T17:14:18.740Z,64.03
2022-08-26T17:16:52.037Z,63.85
2022-08-26T17:19:22.405Z,64.45
2022-08-26T17:21:51.035Z,64.59
2022-08-26T17:24:19.923Z,64.72
2022-08-26T17:26:50.019Z,64.84
2022-08-26T17:29:22.252Z,65.01
2022-08-26T17:31:50.915Z,65.04
2022-08-26T17:34:20.027Z,65.03
2022-08-26T17:36:48.736Z,65.15
2022-08-26T17:39:17.603Z,65.72
2022-08-26T17:41:46.276Z,65.33
2022-08-26T17:44:14.750Z,65.75
2022-08-26T17:46:43.364Z,65.70
2022-08-26T17:49:12.127Z,65.57
2022-08-26T17:51:41.562Z,66.10
2022-08-26T17:54:10.270Z,66.18
2022-08-26T17:56:39.043Z,66.33
2022-08-26T17:59:07.639Z,66.30
2022-08-26T18:01:36.773Z,66.10
2022-08-26T18:04:05.484Z,66.42
2022-08-26T18:06:35.675Z,66.55
2022-08-26T18:09:04.665Z,66.45
2022-08-26T18:11:34.216Z,66.70
2022-08-26T18:14:02.754Z,66.67
2022-08-26T18:16:34.753Z,66.54
2022-08-26T18:19:03.943Z,67.10
2022-08-26T18:21:33.050Z,66.60
2022-08-26T18:24:01.972Z,66.52
2022-08-26T18:26:37.007Z,66.70
2022-08-26T18:29:07.496Z,66.66
2022-08-26T18:31:38.233Z,66.31
2022-08-26T18:34:08.911Z,66.49
2022-08-26T18:36:38.000Z,66.50
2022-08-26T18:39:08.781Z,66.94
2022-08-26T18:41:47.124Z,66.72
2022-08-26T18:44:17.394Z,67.06
2022-08-26T18:46:47.092Z,67.50
2022-08-26T18:49:17.329Z,67.27
2022-08-26T18:51:48.316Z,67.23
2022-08-26T18:56:46.613Z,67.37
2022-08-26T18:59:15.615Z,67.20
2022-08-26T19:01:44.745Z,67.26
2022-08-26T19:04:14.771Z,67.18
2022-08-26T19:06:48.316Z,67.11
2022-08-26T19:09:18.692Z,67.09
2022-08-26T19:11:50.577Z,66.74
2022-08-26T19:14:19.975Z,66.31
2022-08-26T19:16:50.599Z,66.18
2022-08-26T19:19:21.237Z,66.21
2022-08-26T19:21:50.065Z,66.17
2022-08-26T19:24:20.233Z,65.48
2022-08-26T19:26:57.582Z,65.21
2022-08-26T19:29:31.655Z,65.36
2022-08-26T19:32:00.498Z,65.39
2022-08-26T19:34:29.044Z,65.16
2022-08-26T19:36:59.343Z,65.29
2022-08-26T19:39:29.123Z,64.96
2022-08-26T19:41:58.182Z,65.03
2022-08-26T19:44:45.833Z,65.15
2022-08-26T19:47:14.843Z,64.92
2022-08-26T19:49:44.020Z,65.52
2022-08-26T19:52:13.667Z,65.06
2022-08-26T19:54:42.209Z,64.96
2022-08-26T19:57:11.725Z,64.86
2022-08-26T19:59:41.019Z,65.25
2022-08-26T20:02:11.280Z,64.34
2022-08-26T20:04:42.761Z,64.34
2022-08-26T20:07:14.196Z,64.10
2022-08-26T20:09:48.059Z,63.72
2022-08-26T20:12:18.151Z,63.30
2022-08-26T20:14:46.880Z,63.46
2022-08-26T20:17:17.793Z,62.68
2022-08-26T20:20:04.918Z,62.52
2022-08-26T20:22:34.298Z,61.85
2022-08-26T20:25:03.506Z,61.27
2022-08-26T20:27:38.394Z,60.59
2022-08-26T20:30:09.759Z,60.25
2022-08-26T20:32:40.268Z,59.84
2022-08-26T20:35:12.605Z,59.28
2022-08-26T20:37:42.235Z,59.21
2022-08-26T20:40:13.054Z,59.08
2022-08-26T20:42:41.770Z,58.46
2022-08-26T20:45:10.673Z,58.51
2022-08-26T20:47:39.222Z,58.37
2022-08-26T20:50:09.276Z,58.39
2022-08-26T20:52:37.767Z,58.38
2022-08-26T20:55:07.321Z,58.11
2022-08-26T20:57:35.733Z,57.80
2022-08-26T21:00:07.029Z,58.12
2022-08-26T21:02:35.524Z,57.74
2022-08-26T21:05:05.004Z,58.37
2022-08-26T21:07:33.804Z,58.52
2022-08-26T21:10:02.874Z,58.98
2022-08-26T21:12:32.236Z,58.75
2022-08-26T21:15:01.349Z,58.98
2022-08-26T21:17:29.971Z,58.97
2022-08-26T21:19:58.642Z,58.31
2022-08-26T21:22:27.051Z,58.76
2022-08-26T21:24:55.624Z,58.67
2022-08-26T21:27:26.316Z,59.06
2022-08-26T21:29:55.620Z,59.25
2022-08-26T21:32:24.583Z,58.82
2022-08-26T21:34:57.723Z,59.23
2022-08-26T21:37:28.610Z,58.98
2022-08-26T21:39:59.404Z,59.39
2022-08-26T21:42:28.549Z,59.27
2022-08-26T21:44:57.096Z,59.53
2022-08-26T21:47:25.653Z,59.46
2022-08-26T21:49:57.191Z,60.82
2022-08-26T21:52:27.025Z,60.36
2022-08-26T21:55:03.140Z,60.82
2022-08-26T21:57:37.675Z,61.37
2022-08-26T22:00:13.778Z,61.62
2022-08-26T22:02:42.436Z,62.15
2022-08-26T22:05:11.623Z,62.52
2022-08-26T22:07:40.278Z,63.02
2022-08-26T22:10:09.629Z,63.38
2022-08-26T22:12:38.779Z,63.45
2022-08-26T22:15:08.236Z,64.29
2022-08-26T22:17:36.882Z,64.66
2022-08-26T22:20:07.430Z,64.75
2022-08-26T22:22:45.854Z,64.35
2022-08-26T22:25:14.593Z,65.22
2022-08-26T22:27:43.552Z,65.57
2022-08-26T22:30:12.631Z,66.24
2022-08-26T22:32:41.511Z,66.97
2022-08-26T22:35:29.323Z,67.07
2022-08-26T22:37:59.659Z,66.87
2022-08-26T22:40:31.130Z,67.43
2022-08-26T22:43:00.251Z,67.64
2022-08-26T22:45:34.407Z,68.23
2022-08-26T22:48:05.830Z,68.55
2022-08-26T22:50:34.537Z,69.21
2022-08-26T22:53:03.349Z,69.60
2022-08-26T22:55:32.010Z,69.97
2022-08-26T22:58:01.056Z,70.52
2022-08-26T23:00:31.987Z,70.54
2022-08-26T23:03:02.069Z,71.22
2022-08-26T23:05:31.801Z,71.81
2022-08-26T23:08:01.466Z,72.26
2022-08-26T23:10:31.129Z,72.07
2022-08-26T23:12:59.867Z,72.31
2022-08-26T23:15:29.262Z,72.20
2022-08-26T23:17:59.118Z,72.70
2022-08-26T23:20:29.033Z,72.84
2022-08-26T23:23:03.576Z,73.41
2022-08-26T23:25:33.452Z,73.40
2022-08-26T23:28:02.886Z,73.71
2022-08-26T23:30:33.266Z,74.04
2022-08-26T23:33:01.740Z,74.78
2022-08-26T23:35:30.825Z,75.08
2022-08-26T23:37:59.442Z,75.32
2022-08-26T23:40:33.480Z,75.73
2022-08-26T23:43:06.340Z,76.01
2022-08-26T23:45:36.427Z,76.28
2022-08-26T23:48:10.763Z,76.57
2022-08-26T23:50:57.668Z,77.43
2022-08-26T23:53:26.468Z,76.62
2022-08-26T23:55:55.417Z,77.39
2022-08-26T23:58:24.060Z,77.36
